Flight Track Log - Related Links

Times and Time Zones

All times are in EDT time to prevent confusion due to time zone crossing. See the ASQ5432 flight status page for this flight to view local times or setup timezone preferences in your user account.


Time Position Orientation Groundspeed Altitude Reporting Facility
EDT Latitude Longitude Course Direction KTS MPH feet Rate Location/Type
Mon 09:01:00 AM 38.2667 -85.7500 102° East 229 264 3,900  Level Louisville TRACON
Mon 09:01:47 AM 38.2919 -85.6944 60° Northeast 273 314 5,300 2,222 Climbing Indianapolis Center
Mon 09:02:48 AM 38.2711 -85.6136 108° East 261 300 7,900 2,488 Climbing Indianapolis Center
Mon 09:03:50 AM 38.2103 -85.5517 141° Southeast 271 312 10,400 1,805 Climbing Indianapolis Center
Mon 09:04:51 AM 38.1394 -85.4828 143° Southeast 318 366 11,600 1,574 Climbing Indianapolis Center
Mon 09:05:52 AM 38.0864 -85.3867 125° Southeast 349 402 13,600 1,902 Climbing Indianapolis Center
Mon 09:06:00 AM 38.0294 -85.0598 102° East  Level FlightAware Approximate
Mon 09:06:54 AM 38.0706 -85.2622 99° East 356 410 15,500  Level Indianapolis Center
Mon 09:07:55 AM 38.0817 -85.1139 85° East 366 421 17,400 1,707 Climbing Indianapolis Center
Mon 09:08:57 AM 38.0303 -84.9944 119° Southeast 376 433 19,000 1,512 Climbing Indianapolis Center
Mon 09:09:58 AM 37.9844 -84.8711 115° Southeast 384 442 20,500 1,377 Climbing Indianapolis Center
Mon 09:10:59 AM 37.9344 -84.7453 117° Southeast 396 456 21,800 1,171 Climbing Indianapolis Center
Mon 09:12:01 AM 37.8839 -84.6136 116° Southeast 411 473 22,900 1,073 Climbing Indianapolis Center
Mon 09:13:02 AM 37.8306 -84.4783 116° Southeast 425 489 24,000 1,024 Climbing Indianapolis Center
Mon 09:14:04 AM 37.7772 -84.3383 116° Southeast 437 503 25,000 1,024 Climbing Indianapolis Center
Mon 09:15:05 AM 37.7219 -84.1983 116° Southeast 444 511 26,100 1,122 Climbing Indianapolis Center
Mon 09:16:07 AM 37.6564 -84.0333 117° Southeast 448 516 27,300 1,113 Climbing Indianapolis Center
Mon 09:17:09 AM 37.6008 -83.8922 116° Southeast 449 517 28,400 829 Climbing Indianapolis Center
Mon 09:18:10 AM 37.5450 -83.7492 116° Southeast 451 519 29,000 293 Climbing Indianapolis Center
Mon 09:19:12 AM 37.4872 -83.6056 117° Southeast 457 526 29,000  Level Indianapolis Center
Mon 09:20:13 AM 37.4289 -83.4603 117° Southeast 463 533 29,000  Level Indianapolis Center
Mon 09:21:15 AM 37.3692 -83.3153 117° Southeast 465 535 29,000  Level Indianapolis Center
Mon 09:22:16 AM 37.3106 -83.1703 117° Southeast 463 533 29,000  Level Indianapolis Center
Mon 09:23:18 AM 37.2303 -83.0486 130° Southeast 449 517 29,000  Level Indianapolis Center
Mon 09:24:19 AM 37.0942 -83.0339 175° South 425 489 29,000  Level Indianapolis Center
Mon 09:25:21 AM 36.9772 -83.0364 181° South 425 489 29,000  Level Indianapolis Center
Mon 09:26:22 AM 36.8597 -83.0375 180° South 430 495 29,000  Level Indianapolis Center
Mon 09:27:24 AM 36.7417 -83.0394 181° South 430 495 29,000  Level Indianapolis Center
Mon 09:28:26 AM 36.6228 -83.0408 181° South 429 494 29,000  Level Indianapolis Center
Mon 09:29:27 AM 36.4842 -83.0422 180° South 427 491 29,000  Level Indianapolis Center
Mon 09:30:29 AM 36.3650 -83.0436 181° South 428 493 29,000  Level Indianapolis Center
Mon 09:31:16 AM 36.2817 -83.0472 182° South 435 501 29,000  Level Atlanta Center
Mon 09:32:16 AM 36.1586 -83.0486 181° South 435 501 29,000  Level Atlanta Center
Mon 09:33:16 AM 36.0417 -83.0500 181° South 435 501 29,000  Level Atlanta Center
Mon 09:34:16 AM 35.9208 -83.0517 181° South 435 501 29,000  Level Atlanta Center
Mon 09:35:16 AM 35.8019 -83.0556 182° South 440 506 29,000  Level Atlanta Center
Mon 09:36:16 AM 35.6897 -83.1056 200° South 423 487 29,000  Level Atlanta Center
Mon 09:37:16 AM 35.5817 -83.1578 201° Southwest 423 487 29,000  Level Atlanta Center
Mon 09:38:16 AM 35.4714 -83.2100 201° Southwest 428 493 29,000 -300 Level Atlanta Center
Mon 09:39:16 AM 35.3550 -83.2647 201° Southwest 428 493 28,400 -950 Descending Atlanta Center
Mon 09:40:16 AM 35.2467 -83.3139 200° South 428 493 27,100 -1,250 Descending Atlanta Center
Mon 09:41:16 AM 35.1386 -83.3656 201° Southwest 428 493 25,900 -1,050 Descending Atlanta Center
Mon 09:42:16 AM 35.0322 -83.4147 201° Southwest 428 493 25,000 -1,050 Descending Atlanta Center
Mon 09:43:16 AM 34.9261 -83.4611 200° South 410 472 23,800 -1,050 Descending Atlanta Center
Mon 09:44:16 AM 34.8242 -83.5100 201° Southwest 410 472 22,900 -900 Descending Atlanta Center
Mon 09:45:16 AM 34.7283 -83.5561 202° Southwest 410 472 22,000 -1,050 Descending Atlanta Center
Mon 09:46:16 AM 34.6283 -83.5994 200° South 393 452 20,800 -1,150 Descending Atlanta Center
Mon 09:47:16 AM 34.5303 -83.6456 201° Southwest 388 447 19,700 -1,200 Descending Atlanta Center
Mon 09:48:16 AM 34.4325 -83.6911 201° Southwest 388 447 18,400 -1,250 Descending Atlanta Center
Mon 09:49:16 AM 34.3364 -83.7319 199° South 381 438 17,200 -1,350 Descending Atlanta Center
Mon 09:50:16 AM 34.2428 -83.7775 202° Southwest 373 429 15,700 -1,450 Descending Atlanta Center
Mon 09:51:16 AM 34.1364 -83.8256 201° Southwest 373 429 14,300 -850 Descending Atlanta Center
Mon 09:52:16 AM 34.0467 -83.8858 209° Southwest 373 429 14,000 -568 Descending Atlanta Center
Mon 09:52:51 AM 34.0000 -83.9333 220° Southwest 363 418 13,400 -1,011 Descending Atlanta TRACON
Mon 09:53:45 AM 33.9333 -84.0000 220° Southwest 371 427 12,500 -684 Descending Atlanta TRACON
Mon 09:54:45 AM 33.8667 -84.0833 226° Southwest 369 425 12,100 -330 Descending Atlanta TRACON
Mon 09:55:16 AM 33.8150 -84.1214 211° Southwest 366 421 12,000 -66 Descending Atlanta Center
Mon 09:56:16 AM 33.7483 -84.1711 212° Southwest 318 366 12,000  Level Atlanta Center
Mon 09:57:16 AM 33.7294 -84.2386 251° West 228 262 12,000 -50 Level Atlanta Center
Mon 09:58:16 AM 33.7292 -84.3236 270° West 242 278 11,900 -750 Descending Atlanta Center
Mon 09:59:16 AM 33.7289 -84.4011 270° West 242 278 10,500 -1,385 Descending Atlanta Center
Mon 10:00:39 AM 33.7333 -84.5167 273° West 230 265 8,600 -1,409 Descending Atlanta TRACON
Mon 10:01:45 AM 33.7333 -84.6000 270° West 225 259 7,000 -1,350 Descending Atlanta TRACON
Mon 10:02:39 AM 33.7333 -84.6667 270° West 224 258 5,900 -1,368 Descending Atlanta TRACON
Mon 10:03:39 AM 33.6833 -84.6833 196° South 228 262 4,400 -1,000 Descending Atlanta TRACON
Mon 10:04:33 AM 33.6500 -84.6333 129° Southeast 221 254 4,000 -588 Descending Atlanta TRACON
Mon 10:05:21 AM 33.6500 -84.5833 90° East 201 231 3,400 -889 Descending Atlanta TRACON
Mon 10:06:21 AM 33.6500 -84.5167 90° East 179 206 2,400 -900 Descending Atlanta TRACON
Mon 10:07:21 AM 33.6500 -84.4667 90° East 144 166 1,600 -800 Descending Atlanta TRACON
Mon 10:09:00 AM 33.6367 -84.4279 64° Northeast  Level Estimated

Login

Don't have an account? Register now (free) for customized features, flight alerts, and more!